Time;durP1;ratioP1;P1;durP2;ratioP2;P2;SDS_P1;SDS_P2;PMS_P1;PMS_P2;Temp;Humidity;BMP_temperature;BMP_pressure;BME280_temperature;BME280_humidity;BME280_pressure;Samples;Min_cycle;Max_cycle;Signal;HPM_P1;HPM_P2
2023/09/30 00:00:08;;;;;;;;;;;;;;;23.87;44.55;101206.84;7401211;19;1699;-36
2023/09/30 00:02:36;;;;;;;;;;;;;;;23.87;44.58;101212.25;7400782;19;1514;-36
2023/09/30 00:05:04;;;;;;;;;;;;;;;23.84;44.86;101226.09;7400241;19;1560;-36
2023/09/30 00:07:33;;;;;;;;;;;;;;;23.81;44.51;101225.41;7400542;19;1581;-36
2023/09/30 00:10:04;;;;;;;;;;;;;;;23.88;44.54;101209.41;7399965;19;1312;-36
2023/09/30 00:12:32;;;;;;;;;;;;;;;23.90;44.52;101225.47;7398939;19;1287;-36
2023/09/30 00:15:01;;;;;;;;;;;;;;;23.85;44.52;101203.47;7398783;19;1864;-36
2023/09/30 00:17:29;;;;;;;;;;;;;;;23.87;44.48;101209.56;7399979;19;1308;-36
2023/09/30 00:19:59;;;;;;;;;;;;;;;23.86;44.84;101211.41;7400829;19;1470;-36
2023/09/30 00:22:27;;;;;;;;;;;;;;;23.86;44.56;101232.19;7399921;19;1637;-36
2023/09/30 00:24:55;;;;;;;;;;;;;;;23.81;44.73;101203.78;7399880;19;1558;-36
2023/09/30 00:27:26;;;;;;;;;;;;;;;23.85;44.65;101208.88;7400525;19;1723;-36
2023/09/30 00:29:55;;;;;;;;;;;;;;;23.92;44.64;101220.75;7400377;19;1589;-36
2023/09/30 00:32:24;;;;;;;;;;;;;;;23.85;44.71;101219.66;7398576;19;1455;-36
2023/09/30 00:34:53;;;;;;;;;;;;;;;23.87;44.57;101217.66;7398307;19;1868;-36
2023/09/30 00:37:22;;;;;;;;;;;;;;;23.85;44.35;101203.47;7384723;19;1420;-36
2023/09/30 00:39:50;;;;;;;;;;;;;;;23.84;44.52;101207.19;7398721;19;1566;-36
2023/09/30 00:42:20;;;;;;;;;;;;;;;23.85;44.54;101215.09;7401309;19;1502;-36
2023/09/30 00:44:51;;;;;;;;;;;;;;;23.88;44.57;101213.97;7400293;19;1502;-36
2023/09/30 00:47:21;;;;;;;;;;;;;;;23.88;44.42;101214.81;7398830;19;1368;-37
2023/09/30 00:49:49;;;;;;;;;;;;;;;23.86;44.28;101205.19;7400202;19;1416;-41
2023/09/30 00:52:17;;;;;;;;;;;;;;;23.82;44.31;101200.06;7397385;19;1438;-36
2023/09/30 00:54:46;;;;;;;;;;;;;;;23.85;44.25;101206.16;7398013;19;1857;-36
2023/09/30 00:57:14;;;;;;;;;;;;;;;23.89;44.50;101221.06;7398626;19;1676;-36
2023/09/30 00:59:43;;;;;;;;;;;;;;;23.86;44.22;101202.47;7397959;19;1621;-36
2023/09/30 01:02:14;;;;;;;;;;;;;;;23.87;44.19;101223.06;7397914;19;1438;-36
2023/09/30 01:04:42;;;;;;;;;;;;;;;23.88;44.42;101222.06;7398408;19;1415;-36
2023/09/30 01:07:11;;;;;;;;;;;;;;;23.81;44.47;101209.19;7399851;19;1242;-36
2023/09/30 01:09:39;;;;;;;;;;;;;;;23.84;44.50;101212.59;7397450;19;1566;-36
2023/09/30 01:12:08;;;;;;;;;;;;;;;23.85;44.41;101223.22;7398631;19;1494;-36
2023/09/30 01:14:38;;;;;;;;;;;;;;;23.80;44.47;101207.47;7395037;19;2440;-36
2023/09/30 01:17:08;;;;;;;;;;;;;;;23.81;44.45;101208.31;7397640;19;1419;-36
2023/09/30 01:19:39;;;;;;;;;;;;;;;23.77;44.41;101209.63;7397884;19;1427;-37
2023/09/30 01:22:10;;;;;;;;;;;;;;;23.81;44.57;101209.19;7398033;19;1720;-36
2023/09/30 01:24:42;;;;;;;;;;;;;;;23.78;44.63;101209.50;7398047;19;1692;-36
2023/09/30 01:27:10;;;;;;;;;;;;;;;23.79;44.41;101210.34;7399473;19;1049;-36
2023/09/30 01:29:39;;;;;;;;;;;;;;;23.77;44.48;101205.09;7397819;19;1600;-36
2023/09/30 01:32:09;;;;;;;;;;;;;;;23.76;44.55;101197.13;7397572;19;1522;-36
2023/09/30 01:34:37;;;;;;;;;;;;;;;23.76;44.54;101210.63;7398040;19;1845;-36
2023/09/30 01:37:06;;;;;;;;;;;;;;;23.76;44.33;101208.78;7382080;19;1708;-36
2023/09/30 01:39:37;;;;;;;;;;;;;;;23.76;44.66;101197.97;7398562;19;1546;-36
2023/09/30 01:42:05;;;;;;;;;;;;;;;23.76;44.60;101206.06;7398073;19;1406;-36
2023/09/30 01:44:33;;;;;;;;;;;;;;;23.79;44.57;101200.38;7397644;19;1530;-36
2023/09/30 01:47:02;;;;;;;;;;;;;;;23.80;44.78;101212.03;7397967;19;1427;-36
2023/09/30 01:49:30;;;;;;;;;;;;;;;23.75;44.84;101203.53;7397738;19;1911;-36
2023/09/30 01:51:58;;;;;;;;;;;;;;;23.72;44.79;101196.59;7397460;19;1527;-36
2023/09/30 01:54:27;;;;;;;;;;;;;;;23.73;44.81;101216.31;7396746;19;1837;-36
2023/09/30 01:56:58;;;;;;;;;;;;;;;23.72;45.07;101202.00;7395422;19;2324;-36
2023/09/30 01:59:27;;;;;;;;;;;;;;;23.72;44.91;101204.69;7398345;19;1533;-36
2023/09/30 02:01:56;;;;;;;;;;;;;;;23.75;44.96;101207.06;7396883;19;1458;-36
2023/09/30 02:04:24;;;;;;;;;;;;;;;23.73;45.13;101198.28;7395771;19;1363;-36
2023/09/30 02:06:52;;;;;;;;;;;;;;;23.16;44.93;101114.97;7393810;19;1699;-36
2023/09/30 02:09:20;;;;;;;;;;;;;;;23.68;44.91;101192.50;7395973;19;1390;-36
2023/09/30 02:11:49;;;;;;;;;;;;;;;23.72;45.11;101204.69;7396432;19;1787;-36
2023/09/30 02:14:20;;;;;;;;;;;;;;;23.71;45.06;101199.44;7396611;19;1383;-36
2023/09/30 02:16:48;;;;;;;;;;;;;;;23.74;45.03;101212.63;7394195;19;1864;-39
2023/09/30 02:19:17;;;;;;;;;;;;;;;23.74;44.84;101204.53;7394477;19;1403;-40
2023/09/30 02:21:45;;;;;;;;;;;;;;;23.71;45.04;101207.53;7394954;19;1406;-39
2023/09/30 02:24:14;;;;;;;;;;;;;;;23.73;45.02;101210.94;7395577;19;1265;-39
2023/09/30 02:26:43;;;;;;;;;;;;;;;23.69;45.12;101213.09;7395320;19;1303;-42
2023/09/30 02:29:11;;;;;;;;;;;;;;;23.71;45.00;101204.84;7393316;19;1403;-40
2023/09/30 02:31:42;;;;;;;;;;;;;;;23.71;45.11;101196.72;7395042;19;1486;-40
2023/09/30 02:34:10;;;;;;;;;;;;;;;23.70;44.97;101206.69;7393448;19;1410;-39
2023/09/30 02:36:39;;;;;;;;;;;;;;;23.76;45.07;101205.22;7377400;19;1853;-40
2023/09/30 02:39:08;;;;;;;;;;;;;;;23.68;45.18;101197.91;7394636;19;1379;-40
2023/09/30 02:41:37;;;;;;;;;;;;;;;23.66;45.05;101208.00;7394302;19;1435;-39
2023/09/30 02:44:06;;;;;;;;;;;;;;;23.66;45.07;101205.31;7394274;19;1449;-39
2023/09/30 02:46:34;;;;;;;;;;;;;;;23.70;44.89;101209.41;7393221;19;1406;-40
2023/09/30 02:49:06;;;;;;;;;;;;;;;23.76;45.11;101222.28;7393085;19;1296;-40
2023/09/30 02:51:34;;;;;;;;;;;;;;;23.68;45.06;101216.81;7394858;19;1379;-40
2023/09/30 02:54:02;;;;;;;;;;;;;;;23.71;45.03;101216.47;7392879;19;1589;-40
2023/09/30 02:56:31;;;;;;;;;;;;;;;23.71;44.96;101219.19;7393397;19;1852;-40
2023/09/30 02:58:59;;;;;;;;;;;;;;;23.67;44.91;101208.84;7395504;19;1400;-40
2023/09/30 03:01:28;;;;;;;;;;;;;;;23.69;45.19;101212.25;7394174;19;1395;-39
2023/09/30 03:03:56;;;;;;;;;;;;;;;23.64;44.87;101210.03;7394874;19;1461;-40
2023/09/30 03:06:27;;;;;;;;;;;;;;;23.63;44.95;101195.69;7392317;19;1565;-39
2023/09/30 03:08:55;;;;;;;;;;;;;;;23.60;45.22;101195.97;7394014;19;1368;-41
2023/09/30 03:11:23;;;;;;;;;;;;;;;23.64;45.01;101199.22;7395095;19;1150;-40
2023/09/30 03:13:52;;;;;;;;;;;;;;;23.65;44.82;101198.19;7394984;19;1696;-40
2023/09/30 03:16:20;;;;;;;;;;;;;;;23.61;44.95;101197.66;7400478;19;1867;-40
2023/09/30 03:18:48;;;;;;;;;;;;;;;23.63;44.94;101200.22;7401739;19;1531;-39
2023/09/30 03:21:17;;;;;;;;;;;;;;;23.64;44.82;101196.53;7402260;19;1645;-39
2023/09/30 03:23:48;;;;;;;;;;;;;;;23.65;45.12;101198.19;7401740;19;1530;-40
2023/09/30 03:26:16;;;;;;;;;;;;;;;23.62;44.78;101203.94;7401765;19;1487;-41
2023/09/30 03:28:46;;;;;;;;;;;;;;;23.61;45.02;101207.63;7401599;19;1794;-39
2023/09/30 03:31:14;;;;;;;;;;;;;;;23.70;44.89;101211.25;7401444;19;1441;-40
2023/09/30 03:33:42;;;;;;;;;;;;;;;23.60;44.92;101222.13;7400822;19;1592;-40
2023/09/30 03:36:11;;;;;;;;;;;;;;;23.62;44.64;101212.03;7395015;19;1863;-41
2023/09/30 03:38:41;;;;;;;;;;;;;;;23.61;44.62;101207.63;7392829;19;1478;-39
2023/09/30 03:41:13;;;;;;;;;;;;;;;23.62;44.69;101210.16;7401728;19;1676;-39
2023/09/30 03:43:41;;;;;;;;;;;;;;;23.58;44.59;101203.38;7401413;19;1771;-39
2023/09/30 03:46:09;;;;;;;;;;;;;;;23.62;44.57;101207.47;7400891;19;1428;-39
2023/09/30 03:48:40;;;;;;;;;;;;;;;23.60;44.64;101195.16;7401492;19;1527;-40
2023/09/30 03:51:13;;;;;;;;;;;;;;;23.60;44.65;101205.94;7397322;19;1268;-40
2023/09/30 03:53:41;;;;;;;;;;;;;;;23.70;44.80;101206.69;7399545;19;1574;-39
2023/09/30 03:56:13;;;;;;;;;;;;;;;23.70;44.51;101222.06;7398461;19;1853;-40
2023/09/30 03:58:41;;;;;;;;;;;;;;;23.60;44.81;101212.19;7400209;19;1601;-40
2023/09/30 04:01:11;;;;;;;;;;;;;;;23.60;44.69;101214.03;7400439;19;1480;-39
2023/09/30 04:03:39;;;;;;;;;;;;;;;23.61;44.64;101203.06;7399612;19;1725;-39
2023/09/30 04:06:09;;;;;;;;;;;;;;;23.49;44.71;101222.34;7400520;19;1791;-40
2023/09/30 04:08:38;;;;;;;;;;;;;;;23.64;45.42;101212.72;7401230;19;1593;-39
2023/09/30 04:11:06;;;;;;;;;;;;;;;23.84;45.70;101207.19;7400787;19;1549;-40
2023/09/30 04:13:37;;;;;;;;;;;;;;;23.87;45.85;101223.06;7400397;19;1309;-40
2023/09/30 04:16:05;;;;;;;;;;;;;;;23.81;46.01;101225.41;7399050;19;1870;-40
2023/09/30 04:18:33;;;;;;;;;;;;;;;23.76;46.56;101221.44;7399771;19;1459;-40
2023/09/30 04:21:04;;;;;;;;;;;;;;;23.80;47.02;101218.28;7399442;19;1720;-39
2023/09/30 04:23:33;;;;;;;;;;;;;;;23.95;46.26;101215.00;7397897;19;1534;-41
2023/09/30 04:26:01;;;;;;;;;;;;;;;24.07;46.26;101232.66;7398259;19;1415;-39
2023/09/30 04:28:30;;;;;;;;;;;;;;;23.96;46.36;101233.78;7398203;19;1347;-39
2023/09/30 04:31:02;;;;;;;;;;;;;;;23.96;46.58;101222.13;7399459;19;1334;-39
2023/09/30 04:33:31;;;;;;;;;;;;;;;24.02;46.77;101229.59;7400473;19;1249;-39
2023/09/30 04:35:59;;;;;;;;;;;;;;;24.05;46.76;101231.97;7399585;19;1848;-39
2023/09/30 04:38:27;;;;;;;;;;;;;;;24.09;46.60;101232.50;7385137;19;1570;-39
2023/09/30 04:40:56;;;;;;;;;;;;;;;24.12;46.66;101224.94;7395143;19;1783;-40
2023/09/30 04:43:24;;;;;;;;;;;;;;;23.94;46.92;101234.94;7397136;19;1249;-39
2023/09/30 04:45:53;;;;;;;;;;;;;;;24.05;46.85;101242.78;7399784;19;1527;-39
2023/09/30 04:48:24;;;;;;;;;;;;;;;24.18;46.73;101239.69;7398815;19;1497;-40
2023/09/30 04:50:52;;;;;;;;;;;;;;;24.35;46.36;101238.78;7398991;19;1557;-39
2023/09/30 04:53:23;;;;;;;;;;;;;;;23.75;41.98;101220.56;7398739;19;1618;-39
2023/09/30 04:55:52;;;;;;;;;;;;;;;23.88;41.62;101231.00;7398714;19;1855;-40
2023/09/30 04:58:20;;;;;;;;;;;;;;;23.98;42.60;101228.22;7395731;19;1560;-43
2023/09/30 05:00:49;;;;;;;;;;;;;;;23.95;45.51;101236.63;7399887;19;1308;-43
2023/09/30 05:03:17;;;;;;;;;;;;;;;23.87;45.30;101237.41;7397437;19;1367;-43
2023/09/30 05:05:48;;;;;;;;;;;;;;;23.84;45.46;101232.34;7397744;19;1632;-42
2023/09/30 05:08:16;;;;;;;;;;;;;;;23.86;45.82;101243.81;7398141;19;1672;-43
2023/09/30 05:10:45;;;;;;;;;;;;;;;23.84;45.80;101234.19;7397888;19;1446;-43
2023/09/30 05:13:14;;;;;;;;;;;;;;;23.90;45.70;101233.56;7396009;19;1309;-43
2023/09/30 05:15:42;;;;;;;;;;;;;;;24.15;45.33;101246.25;7395942;19;1931;-43
2023/09/30 05:18:11;;;;;;;;;;;;;;;24.28;45.07;101236.88;7396186;19;1304;-42
2023/09/30 05:20:39;;;;;;;;;;;;;;;24.47;45.01;101241.19;7397227;19;1299;-42
2023/09/30 05:23:12;;;;;;;;;;;;;;;24.51;44.53;101243.47;7397380;19;1490;-42
2023/09/30 05:25:40;;;;;;;;;;;;;;;24.45;45.02;101249.47;7398823;19;1328;-43
2023/09/30 05:28:09;;;;;;;;;;;;;;;24.33;45.67;101257.03;7397318;19;1418;-43
2023/09/30 05:30:37;;;;;;;;;;;;;;;24.35;45.64;101246.91;7395710;19;2021;-43
2023/09/30 05:33:06;;;;;;;;;;;;;;;24.31;45.71;101252.75;7396574;19;1771;-42
2023/09/30 05:35:34;;;;;;;;;;;;;;;24.30;45.92;101259.19;7391888;19;1374;-43
2023/09/30 05:38:06;;;;;;;;;;;;;;;24.28;45.81;101243.13;7382317;19;1432;-43
2023/09/30 05:40:36;;;;;;;;;;;;;;;24.40;45.67;101249.09;7396296;19;1324;-43
2023/09/30 05:43:05;;;;;;;;;;;;;;;24.59;45.53;101250.75;7396021;19;1478;-40
2023/09/30 05:45:34;;;;;;;;;;;;;;;24.55;45.64;101243.97;7394014;19;1427;-41
2023/09/30 05:48:06;;;;;;;;;;;;;;;24.45;46.07;101249.47;7394241;19;1355;-41
2023/09/30 05:50:36;;;;;;;;;;;;;;;24.39;46.20;101266.31;7397082;19;1469;-40
2023/09/30 05:53:05;;;;;;;;;;;;;;;24.46;46.43;101272.78;7397782;19;1683;-41
2023/09/30 05:55:33;;;;;;;;;;;;;;;24.27;46.60;101254.91;7397058;19;1507;-40
2023/09/30 05:58:05;;;;;;;;;;;;;;;24.36;46.61;101263.94;7397086;19;1896;-40
2023/09/30 06:00:35;;;;;;;;;;;;;;;24.40;46.49;101257.22;7395111;19;1799;-40
2023/09/30 06:03:04;;;;;;;;;;;;;;;24.56;46.06;101249.22;7396519;19;1539;-40
2023/09/30 06:05:32;;;;;;;;;;;;;;;24.41;46.85;101264.31;7395202;19;1912;-41
2023/09/30 06:08:02;;;;;;;;;;;;;;;24.60;46.64;101261.41;7396725;19;1503;-41
2023/09/30 06:10:31;;;;;;;;;;;;;;;24.50;45.56;101267.94;7396561;19;1314;-41
2023/09/30 06:12:59;;;;;;;;;;;;;;;24.41;45.67;101269.72;7396165;19;1269;-40
2023/09/30 06:15:31;;;;;;;;;;;;;;;24.45;46.71;101279.19;7394526;19;1550;-41
2023/09/30 06:18:00;;;;;;;;;;;;;;;24.58;46.25;101271.53;7393875;19;1862;-41
2023/09/30 06:20:30;;;;;;;;;;;;;;;24.66;46.60;101275.31;7396050;19;1573;-41
2023/09/30 06:23:00;;;;;;;;;;;;;;;24.44;47.19;101265.88;7397030;19;1327;-40
2023/09/30 06:25:30;;;;;;;;;;;;;;;24.47;47.29;101271.81;7397382;19;1396;-40
2023/09/30 06:27:58;;;;;;;;;;;;;;;24.45;46.98;101276.50;7396148;19;1269;-41
2023/09/30 06:30:29;;;;;;;;;;;;;;;24.18;45.60;101264.00;7396356;19;1810;-41
2023/09/30 06:33:00;;;;;;;;;;;;;;;24.40;46.53;101276.13;7394859;19;1664;-41
2023/09/30 06:35:30;;;;;;;;;;;;;;;24.42;46.36;101261.44;7392840;19;1563;-43
2023/09/30 06:37:58;;;;;;;;;;;;;;;24.40;46.56;101265.31;7380118;19;1855;-43
2023/09/30 06:40:26;;;;;;;;;;;;;;;24.29;47.09;101276.38;7394736;19;1650;-43
2023/09/30 06:42:54;;;;;;;;;;;;;;;24.28;47.15;101288.22;7395262;19;1481;-43
2023/09/30 06:45:23;;;;;;;;;;;;;;;24.22;47.82;101271.63;7394643;19;1552;-43
2023/09/30 06:47:52;;;;;;;;;;;;;;;24.15;47.98;101280.50;7393690;19;1317;-43
2023/09/30 06:50:23;;;;;;;;;;;;;;;24.29;47.93;101279.09;7398900;19;1447;-40
2023/09/30 06:52:52;;;;;;;;;;;;;;;24.32;47.75;101270.69;7400149;19;1358;-40
2023/09/30 06:55:20;;;;;;;;;;;;;;;24.39;47.91;101280.72;7402754;19;1490;-40
2023/09/30 06:57:48;;;;;;;;;;;;;;;24.56;47.70;101283.53;7400902;19;1834;-40
2023/09/30 07:00:17;;;;;;;;;;;;;;;24.48;47.53;101281.59;7403277;19;1442;-39
2023/09/30 07:02:46;;;;;;;;;;;;;;;24.29;48.00;101279.97;7400390;19;1474;-40
2023/09/30 07:05:16;;;;;;;;;;;;;;;24.21;48.62;101296.97;7395554;19;1735;-40
2023/09/30 07:07:46;;;;;;;;;;;;;;;24.15;48.34;101284.09;7398320;19;1421;-40
2023/09/30 07:10:15;;;;;;;;;;;;;;;24.05;47.07;101272.50;7401491;19;1308;-39
2023/09/30 07:12:43;;;;;;;;;;;;;;;24.10;46.15;101272.88;7399967;19;1443;-39
2023/09/30 07:15:13;;;;;;;;;;;;;;;24.11;46.26;101261.06;7401330;19;1390;-39
2023/09/30 07:17:42;;;;;;;;;;;;;;;24.12;47.01;101276.28;7399024;19;1849;-39
2023/09/30 07:20:10;;;;;;;;;;;;;;;24.09;45.02;101276.59;7400799;19;1288;-39
2023/09/30 07:22:38;;;;;;;;;;;;;;;24.16;46.20;101266.84;7400405;19;1355;-39
2023/09/30 07:25:10;;;;;;;;;;;;;;;24.14;45.07;101260.75;7402298;19;1316;-39
2023/09/30 07:27:38;;;;;;;;;;;;;;;24.27;45.95;101271.13;7402773;19;1396;-39
2023/09/30 07:30:07;;;;;;;;;;;;;;;24.24;45.09;101271.47;7400271;19;1402;-39
2023/09/30 07:32:35;;;;;;;;;;;;;;;24.27;46.40;101264.91;7401488;19;1371;-39
2023/09/30 07:35:04;;;;;;;;;;;;;;;24.26;46.61;101260.50;7401614;19;1412;-39
2023/09/30 07:37:32;;;;;;;;;;;;;;;24.22;46.91;101257.28;7385740;19;1849;-39
2023/09/30 07:40:01;;;;;;;;;;;;;;;24.32;46.92;101276.09;7399824;19;1545;-40
2023/09/30 07:42:33;;;;;;;;;;;;;;;24.39;46.83;101269.91;7400787;19;1577;-39
2023/09/30 07:45:03;;;;;;;;;;;;;;;24.41;47.74;101269.72;7396522;19;1536;-39
2023/09/30 07:47:33;;;;;;;;;;;;;;;24.53;47.24;101268.50;7395889;19;1538;-40
2023/09/30 07:50:02;;;;;;;;;;;;;;;24.58;47.46;101270.72;7399170;19;1289;-39
2023/09/30 07:52:30;;;;;;;;;;;;;;;24.45;47.39;101254.88;7398843;19;1463;-40
2023/09/30 07:54:58;;;;;;;;;;;;;;;24.55;47.38;101261.06;7401117;19;1395;-39
2023/09/30 07:57:27;;;;;;;;;;;;;;;24.57;47.17;101250.94;7398956;19;1881;-40
2023/09/30 07:59:58;;;;;;;;;;;;;;;24.56;47.81;101262.75;7397111;19;1419;-40
2023/09/30 08:02:32;;;;;;;;;;;;;;;24.69;47.74;101256.03;7400089;19;1653;-40
2023/09/30 08:05:01;;;;;;;;;;;;;;;24.80;47.44;101247.66;7397759;19;1360;-40
2023/09/30 08:07:29;;;;;;;;;;;;;;;24.75;48.23;101272.50;7400147;19;1459;-40
2023/09/30 08:09:58;;;;;;;;;;;;;;;24.88;47.63;101277.44;7398249;19;1755;-39
2023/09/30 08:12:26;;;;;;;;;;;;;;;24.73;48.78;101270.94;7396826;19;1783;-39
2023/09/30 08:14:55;;;;;;;;;;;;;;;24.62;48.67;101263.97;7399414;19;1837;-41
2023/09/30 08:17:25;;;;;;;;;;;;;;;24.71;48.32;101270.25;7392077;19;1854;-39
2023/09/30 08:19:54;;;;;;;;;;;;;;;24.54;47.42;101258.53;7394439;19;1312;-40
2023/09/30 08:22:27;;;;;;;;;;;;;;;24.42;47.81;101258.75;7397596;19;1317;-40
2023/09/30 08:24:56;;;;;;;;;;;;;;;24.29;46.46;101271.00;7400748;19;1395;-40
2023/09/30 08:27:24;;;;;;;;;;;;;;;24.48;45.22;101281.59;7397772;19;1798;-40
2023/09/30 08:29:53;;;;;;;;;;;;;;;24.45;43.16;101272.94;7398641;19;1586;-40
2023/09/30 08:32:21;;;;;;;;;;;;;;;24.45;42.71;101264.84;7397069;19;1535;-39
2023/09/30 08:34:52;;;;;;;;;;;;;;;24.42;44.06;101260.59;7395114;19;1371;-40
2023/09/30 08:37:22;;;;;;;;;;;;;;;24.45;45.50;101259.44;7395404;19;1869;-40
2023/09/30 08:39:51;;;;;;;;;;;;;;;24.54;44.15;101256.66;7381500;19;1402;-40
2023/09/30 08:42:20;;;;;;;;;;;;;;;24.40;43.10;101263.47;7395831;19;1574;-39
2023/09/30 08:44:50;;;;;;;;;;;;;;;24.33;44.48;101248.03;7398376;19;1593;-40
2023/09/30 08:47:18;;;;;;;;;;;;;;;24.10;41.64;101255.84;7396997;19;1635;-40
2023/09/30 08:49:47;;;;;;;;;;;;;;;24.14;41.81;101247.25;7399443;19;1669;-39
2023/09/30 08:52:17;;;;;;;;;;;;;;;24.27;43.58;101246.81;7400079;19;1641;-40
2023/09/30 08:54:46;;;;;;;;;;;;;;;24.25;41.57;101251.53;7400446;19;1569;-40
2023/09/30 08:57:15;;;;;;;;;;;;;;;24.28;41.03;101248.53;7399621;19;1841;-39
2023/09/30 08:59:45;;;;;;;;;;;;;;;24.50;41.44;101241.75;7398920;19;1511;-39
2023/09/30 09:02:13;;;;;;;;;;;;;;;24.45;41.69;101235.94;7398778;19;1335;-40
2023/09/30 09:04:41;;;;;;;;;;;;;;;24.54;41.61;101253.94;7398679;19;1377;-39
2023/09/30 09:07:10;;;;;;;;;;;;;;;24.37;41.24;101244.00;7398794;19;1264;-40
2023/09/30 09:09:40;;;;;;;;;;;;;;;24.21;40.38;101248.31;7397248;19;1593;-39
2023/09/30 09:12:09;;;;;;;;;;;;;;;24.40;41.54;101235.59;7398013;19;1403;-39
2023/09/30 09:14:41;;;;;;;;;;;;;;;24.36;42.34;101247.72;7400117;19;1913;-40
2023/09/30 09:17:10;;;;;;;;;;;;;;;24.19;42.95;101226.00;7398864;19;1866;-37
2023/09/30 09:19:38;;;;;;;;;;;;;;;24.25;42.67;101231.78;7400067;19;1657;-37
2023/09/30 09:22:06;;;;;;;;;;;;;;;24.24;41.97;101224.69;7398986;19;1762;-37
2023/09/30 09:24:35;;;;;;;;;;;;;;;24.29;41.80;101227.75;7398343;19;1357;-37
2023/09/30 09:27:09;;;;;;;;;;;;;;;24.35;40.96;101227.09;7398865;19;1400;-37
2023/09/30 09:29:38;;;;;;;;;;;;;;;24.38;40.45;101219.53;7397553;19;1607;-37
2023/09/30 09:32:10;;;;;;;;;;;;;;;24.37;39.87;101214.28;7397765;19;1735;-37
2023/09/30 09:34:38;;;;;;;;;;;;;;;24.42;41.36;101217.34;7397348;19;1734;-37
2023/09/30 09:37:16;;;;;;;;;;;;;;;24.61;41.48;101238.78;7397103;19;1845;-37
2023/09/30 09:39:55;;;;;;;;;;;;;;;24.37;42.83;101220.56;7383778;19;1392;-37
2023/09/30 09:42:30;;;;;;;;;;;;;;;24.63;41.43;101224.25;7393732;19;1821;-37
2023/09/30 09:45:00;;;;;;;;;;;;;;;24.74;40.60;101224.81;7396042;19;1242;-37
2023/09/30 09:47:28;;;;;;;;;;;;;;;24.65;40.92;101216.81;7391833;19;1460;-37
2023/09/30 09:49:59;;;;;;;;;;;;;;;24.71;40.27;101222.44;7396690;19;1554;-37
2023/09/30 09:52:28;;;;;;;;;;;;;;;24.64;40.19;101207.03;7395093;19;1315;-37
2023/09/30 09:54:54;;;;;;;;;;;;;;;24.53;40.64;101209.00;7396758;19;1450;-37
2023/09/30 09:57:22;;;;;;;;;;;;;;;24.71;41.17;101216.16;7396834;19;1849;-37
2023/09/30 09:59:55;;;;;;;;;;;;;;;24.78;40.34;101195.59;7394875;19;1379;-37
2023/09/30 10:02:24;;;;;;;;;;;;;;;24.78;39.88;101198.28;7394340;19;1301;-37
2023/09/30 10:04:53;;;;;;;;;;;;;;;24.85;39.96;101180.41;7394717;19;1388;-37
2023/09/30 10:07:23;;;;;;;;;;;;;;;24.82;40.10;101196.94;7396349;19;1367;-37
2023/09/30 10:09:53;;;;;;;;;;;;;;;24.79;40.56;101189.19;7395933;19;1430;-37
2023/09/30 10:12:22;;;;;;;;;;;;;;;24.83;40.55;101181.56;7395455;19;1439;-37
2023/09/30 10:14:53;;;;;;;;;;;;;;;24.82;40.44;101183.44;7397481;19;1234;-37
2023/09/30 10:17:21;;;;;;;;;;;;;;;24.91;40.87;101187.00;7395265;19;1868;-37
2023/09/30 10:20:18;;;;;;;;;;;;;;;24.90;39.31;101178.03;7396497;19;1661;-37
2023/09/30 10:22:50;;;;;;;;;;;;;;;24.99;39.66;101178.91;7391344;19;2131;-37
2023/09/30 10:25:33;;;;;;;;;;;;;;;24.94;40.13;101176.69;7394722;19;1453;-37
2023/09/30 10:28:02;;;;;;;;;;;;;;;24.90;41.20;101175.31;7396603;19;1435;-37
2023/09/30 10:30:35;;;;;;;;;;;;;;;24.81;41.60;101174.47;7395713;19;1635;-37
2023/09/30 10:33:17;;;;;;;;;;;;;;;24.88;41.03;101166.53;7394847;19;1415;-37
2023/09/30 10:35:43;;;;;;;;;;;;;;;25.06;40.82;101171.81;7392741;19;1801;-37
2023/09/30 10:38:27;;;;;;;;;;;;;;;24.90;41.60;101166.38;7382329;19;1843;-37
2023/09/30 10:40:56;;;;;;;;;;;;;;;24.76;41.60;101157.03;7395918;19;1381;-37
2023/09/30 10:43:35;;;;;;;;;;;;;;;24.69;42.03;101169.50;7395222;19;1408;-37
2023/09/30 10:46:08;;;;;;;;;;;;;;;24.68;42.07;101143.50;7394741;19;1393;-37
2023/09/30 10:48:37;;;;;;;;;;;;;;;24.66;42.46;101151.75;7395283;19;1376;-37
2023/09/30 10:51:16;;;;;;;;;;;;;;;24.63;42.85;101151.22;7394820;19;1412;-36
2023/09/30 10:53:45;;;;;;;;;;;;;;;24.61;43.11;101146.84;7393983;19;1454;-37
2023/09/30 10:56:14;;;;;;;;;;;;;;;24.71;42.93;101141.31;7393524;19;1383;-37
2023/09/30 10:58:43;;;;;;;;;;;;;;;24.59;43.51;101142.59;7392700;19;1861;-38
2023/09/30 11:01:15;;;;;;;;;;;;;;;24.45;44.71;101129.66;7393638;19;1383;-37
2023/09/30 11:03:44;;;;;;;;;;;;;;;24.36;44.75;101128.81;7391671;19;1473;-36
2023/09/30 11:06:17;;;;;;;;;;;;;;;24.35;44.92;101124.38;7395052;19;1363;-37
2023/09/30 11:08:48;;;;;;;;;;;;;;;24.34;45.09;101115.44;7395691;19;1226;-37
2023/09/30 11:11:17;;;;;;;;;;;;;;;23.80;44.90;101036.50;7395638;19;1741;-36
2023/09/30 11:13:45;;;;;;;;;;;;;;;24.27;44.77;101110.84;7392258;19;1394;-37
2023/09/30 11:16:16;;;;;;;;;;;;;;;24.31;44.90;101114.91;7391539;19;1352;-37
2023/09/30 11:18:44;;;;;;;;;;;;;;;24.42;44.19;101106.53;7389651;19;1859;-37
2023/09/30 11:21:14;;;;;;;;;;;;;;;24.57;44.17;101121.16;7393646;19;1427;-37
2023/09/30 11:23:43;;;;;;;;;;;;;;;24.68;43.67;101117.28;7390452;19;1673;-37
2023/09/30 11:26:13;;;;;;;;;;;;;;;24.71;43.77;101103.44;7390678;19;1395;-36
2023/09/30 11:28:42;;;;;;;;;;;;;;;24.53;43.87;101090.03;7389004;19;1368;-38
2023/09/30 11:31:14;;;;;;;;;;;;;;;24.65;43.74;101087.00;7384091;19;1701;-36
2023/09/30 11:33:57;;;;;;;;;;;;;;;24.68;43.91;101084.00;7389960;19;1704;-37
2023/09/30 11:36:26;;;;;;;;;;;;;;;24.64;43.95;101093.44;7396806;19;1643;-37
2023/09/30 11:38:55;;;;;;;;;;;;;;;24.63;44.16;101080.94;7381471;19;1855;-37
2023/09/30 11:41:25;;;;;;;;;;;;;;;24.60;44.46;101064.03;7398271;19;1567;-37
2023/09/30 11:44:04;;;;;;;;;;;;;;;24.61;43.78;101067.56;7396865;19;1637;-41
2023/09/30 11:46:33;;;;;;;;;;;;;;;24.76;43.23;101079.44;7398161;19;1636;-37
2023/09/30 11:49:08;;;;;;;;;;;;;;;24.94;43.05;101083.88;7395681;19;1506;-37
2023/09/30 11:51:46;;;;;;;;;;;;;;;24.63;43.21;101033.13;7396317;19;1584;-37
2023/09/30 11:54:14;;;;;;;;;;;;;;;24.90;42.87;101075.22;7396318;19;1399;-37
2023/09/30 11:56:42;;;;;;;;;;;;;;;24.81;43.15;101066.28;7395994;19;1772;-37
2023/09/30 11:59:11;;;;;;;;;;;;;;;24.89;43.29;101072.69;7391942;19;1861;-37
2023/09/30 12:01:40;;;;;;;;;;;;;;;25.01;42.72;101083.03;7393217;19;1840;-37
2023/09/30 12:04:11;;;;;;;;;;;;;;;25.04;42.70;101071.03;7395405;19;1499;-37
2023/09/30 12:06:40;;;;;;;;;;;;;;;25.03;42.69;101072.06;7395761;19;1697;-37
2023/09/30 12:09:13;;;;;;;;;;;;;;;25.12;42.16;101070.19;7396822;19;1673;-37
2023/09/30 12:11:43;;;;;;;;;;;;;;;25.05;41.86;101044.81;7396120;19;2308;-37
2023/09/30 12:14:12;;;;;;;;;;;;;;;25.00;42.09;101054.28;7399185;19;1463;-37
2023/09/30 12:16:41;;;;;;;;;;;;;;;25.08;42.22;101056.13;7399273;19;1573;-37
2023/09/30 12:19:13;;;;;;;;;;;;;;;25.12;41.97;101052.06;7395526;19;1854;-40
2023/09/30 12:21:41;;;;;;;;;;;;;;;25.17;41.72;101041.59;7397747;19;1597;-40
2023/09/30 12:24:11;;;;;;;;;;;;;;;25.08;40.68;101041.78;7397720;19;1431;-40
2023/09/30 12:26:40;;;;;;;;;;;;;;;25.13;41.00;101053.78;7398463;19;1376;-39
2023/09/30 12:29:09;;;;;;;;;;;;;;;25.12;41.16;101026.88;7397911;19;1226;-41
2023/09/30 12:31:38;;;;;;;;;;;;;;;25.10;41.32;101039.75;7397544;19;1581;-40
2023/09/30 12:34:06;;;;;;;;;;;;;;;25.18;41.01;101037.03;7395406;19;1407;-40
2023/09/30 12:36:37;;;;;;;;;;;;;;;25.16;41.75;101030.94;7398997;19;1641;-40
2023/09/30 12:39:10;;;;;;;;;;;;;;;25.17;41.09;101038.91;7381003;19;1865;-40
2023/09/30 12:41:40;;;;;;;;;;;;;;;25.13;41.45;101020.47;7396088;19;1618;-40
2023/09/30 12:44:08;;;;;;;;;;;;;;;25.11;41.62;101017.06;7395733;19;1367;-39
2023/09/30 12:46:39;;;;;;;;;;;;;;;25.11;41.92;101006.22;7392448;19;1715;-40
2023/09/30 12:49:07;;;;;;;;;;;;;;;25.10;42.14;100996.44;7395284;19;1528;-40
2023/09/30 12:51:39;;;;;;;;;;;;;;;25.02;42.17;101006.25;7395958;19;1663;-40
2023/09/30 12:54:07;;;;;;;;;;;;;;;25.07;42.56;101015.72;7397797;19;1584;-40
2023/09/30 12:56:36;;;;;;;;;;;;;;;25.08;41.98;101004.72;7393727;19;1613;-40
2023/09/30 12:59:04;;;;;;;;;;;;;;;25.17;41.41;101006.41;7394625;19;1837;-40